Terminal Aerodrome Forecast
Issued by NWS Albuquerque, NM

Current Version | Previous Version | Text Only | Print | Product List | Glossary On
Versions: 1 2 3 4 5 6 7 8 9 10 11 12 13 14 15 16
000
FTUS45 KABQ 262300
TAFABQ
TAF
KABQ 262340Z 2700/2724 09013G22KT P6SM SCT040 OVC080
     FM270100 10023G33KT P6SM VCSH SCT030 OVC050
      TEMPO 2702/2706 2SM -SN BR OVC020
     FM270600 09015G23KT 2SM -SN BR OVC020
     FM271000 09015KT P6SM VCSH OVC040
     FM271500 08011KT P6SM OVC050=

USA.gov is the U.S. government's official web portal to all federal, state and local government web resources and services.